Foxpark, Wyoming
Current Conditions -  °F | °C
As of 1:37 PM on Monday 24 Nov 2014 (Local Time) from KLAR Reporting Station
Light Snow Light Snow  
Wind Chill:   Ceiling: 1800
Heat Index: 25°   Visibility: 6mi
Dew Point: 17°   Wind: 28mph
Humidity: 72%   Direction: 310°NW
Pressure: 30.01"   Gusts: 41mph
Location:  41.2601°N, 105.565°W
Report Text: KLAR 242037Z AUTO 31024G36KT 6SM -SN BKN018 BKN023 M04/M08 A3001 RMK AO2 PK WND 31037/2017 P0000 T10391083
Loading
Personal Weather Stations






























Interactive Weather Map New forecast layout! Learn more

10-Day Weather Forecast

Advertisements
Track Severe Weather on mobile